sensor_id;sensor_type;location;lat;lon;timestamp;pressure;altitude;pressure_sealevel;temperature;humidity
45327;BME280;31062;49.678;24.560;2023-03-18T00:01:34;98975.84;;;1.26;63.72
45327;BME280;31062;49.678;24.560;2023-03-18T00:04:22;98933.88;;;1.07;63.36
45327;BME280;31062;49.678;24.560;2023-03-18T00:07:09;98956.47;;;1.30;63.75
45327;BME280;31062;49.678;24.560;2023-03-18T00:09:55;98965.38;;;1.13;63.78
45327;BME280;31062;49.678;24.560;2023-03-18T00:12:41;98924.94;;;1.06;64.05
45327;BME280;31062;49.678;24.560;2023-03-18T00:15:27;98757.47;;;-0.06;63.29
45327;BME280;31062;49.678;24.560;2023-03-18T00:18:13;98957.94;;;1.19;63.75
45327;BME280;31062;49.678;24.560;2023-03-18T00:20:59;98939.81;;;1.16;63.70
45327;BME280;31062;49.678;24.560;2023-03-18T00:23:45;98954.22;;;1.17;64.02
45327;BME280;31062;49.678;24.560;2023-03-18T00:26:33;98967.84;;;1.00;64.29
45327;BME280;31062;49.678;24.560;2023-03-18T00:29:18;98927.63;;;0.95;63.80
45327;BME280;31062;49.678;24.560;2023-03-18T00:32:04;98919.66;;;0.86;64.30
45327;BME280;31062;49.678;24.560;2023-03-18T00:34:49;98952.13;;;0.78;64.45
45327;BME280;31062;49.678;24.560;2023-03-18T00:37:34;98783.75;;;-0.08;64.39
45327;BME280;31062;49.678;24.560;2023-03-18T00:40:21;98945.50;;;1.07;64.60
45327;BME280;31062;49.678;24.560;2023-03-18T00:43:15;98982.75;;;1.10;64.50
45327;BME280;31062;49.678;24.560;2023-03-18T00:46:00;98753.22;;;-0.23;64.15
45327;BME280;31062;49.678;24.560;2023-03-18T00:48:47;98941.31;;;1.06;64.28
45327;BME280;31062;49.678;24.560;2023-03-18T00:51:34;98938.56;;;0.95;64.13
45327;BME280;31062;49.678;24.560;2023-03-18T00:54:20;98973.28;;;0.89;64.46
45327;BME280;31062;49.678;24.560;2023-03-18T00:57:06;98912.69;;;0.74;64.14
45327;BME280;31062;49.678;24.560;2023-03-18T00:59:52;98937.75;;;0.83;64.04
45327;BME280;31062;49.678;24.560;2023-03-18T01:02:38;98746.94;;;-0.46;64.57
45327;BME280;31062;49.678;24.560;2023-03-18T01:05:23;98930.56;;;0.75;64.05
45327;BME280;31062;49.678;24.560;2023-03-18T01:08:09;98929.28;;;0.65;64.46
45327;BME280;31062;49.678;24.560;2023-03-18T01:10:55;98923.06;;;0.59;64.22
45327;BME280;31062;49.678;24.560;2023-03-18T01:13:41;98892.22;;;0.36;64.93
45327;BME280;31062;49.678;24.560;2023-03-18T01:16:27;98852.22;;;0.11;64.73
45327;BME280;31062;49.678;24.560;2023-03-18T01:19:14;98720.03;;;-0.81;64.81
45327;BME280;31062;49.678;24.560;2023-03-18T01:22:01;98911.88;;;0.51;65.32
45327;BME280;31062;49.678;24.560;2023-03-18T01:24:51;98914.38;;;0.60;65.45
45327;BME280;31062;49.678;24.560;2023-03-18T01:27:43;98739.72;;;-0.55;65.07
45327;BME280;31062;49.678;24.560;2023-03-18T01:30:29;98920.34;;;0.59;64.71
45327;BME280;31062;49.678;24.560;2023-03-18T01:33:15;98922.34;;;0.69;65.03
45327;BME280;31062;49.678;24.560;2023-03-18T01:36:02;98915.41;;;0.68;64.50
45327;BME280;31062;49.678;24.560;2023-03-18T01:38:50;98912.19;;;0.70;64.22
45327;BME280;31062;49.678;24.560;2023-03-18T01:41:36;98714.41;;;-0.72;64.53
45327;BME280;31062;49.678;24.560;2023-03-18T01:44:23;98861.69;;;0.21;64.39
45327;BME280;31062;49.678;24.560;2023-03-18T01:47:12;98893.47;;;0.35;64.89
45327;BME280;31062;49.678;24.560;2023-03-18T01:50:06;98920.00;;;0.34;65.12
45327;BME280;31062;49.678;24.560;2023-03-18T01:53:02;98766.44;;;-0.59;65.22
45327;BME280;31062;49.678;24.560;2023-03-18T01:55:49;98900.59;;;0.21;65.52
45327;BME280;31062;49.678;24.560;2023-03-18T01:58:39;98905.06;;;0.24;65.50
45327;BME280;31062;49.678;24.560;2023-03-18T02:01:31;98924.72;;;0.34;65.24
45327;BME280;31062;49.678;24.560;2023-03-18T02:04:24;98816.50;;;-0.51;65.80
45327;BME280;31062;49.678;24.560;2023-03-18T02:07:34;98931.78;;;0.09;65.73
45327;BME280;31062;49.678;24.560;2023-03-18T02:10:24;98910.47;;;0.13;65.98
45327;BME280;31062;49.678;24.560;2023-03-18T02:13:13;98933.31;;;0.21;65.43
45327;BME280;31062;49.678;24.560;2023-03-18T02:16:13;98725.00;;;-1.16;65.06
45327;BME280;31062;49.678;24.560;2023-03-18T02:19:06;98936.56;;;0.25;65.83
45327;BME280;31062;49.678;24.560;2023-03-18T02:22:04;98968.06;;;0.26;65.16
45327;BME280;31062;49.678;24.560;2023-03-18T02:27:41;98890.81;;;-0.08;65.22
45327;BME280;31062;49.678;24.560;2023-03-18T02:30:31;98939.03;;;0.23;65.07
45327;BME280;31062;49.678;24.560;2023-03-18T02:33:22;98933.03;;;0.14;64.97
45327;BME280;31062;49.678;24.560;2023-03-18T02:36:16;98938.00;;;0.15;66.07
45327;BME280;31062;49.678;24.560;2023-03-18T02:39:04;98774.13;;;-0.94;65.70
45327;BME280;31062;49.678;24.560;2023-03-18T02:41:49;98935.97;;;0.05;65.99
45327;BME280;31062;49.678;24.560;2023-03-18T02:44:39;98873.66;;;-0.19;66.75
45327;BME280;31062;49.678;24.560;2023-03-18T02:47:49;98924.88;;;0.19;66.67
45327;BME280;31062;49.678;24.560;2023-03-18T02:50:35;98872.59;;;-0.27;66.56
45327;BME280;31062;49.678;24.560;2023-03-18T02:53:21;98914.59;;;-0.08;65.93
45327;BME280;31062;49.678;24.560;2023-03-18T02:56:07;98939.75;;;0.18;66.23
45327;BME280;31062;49.678;24.560;2023-03-18T02:58:54;98879.59;;;-0.15;66.25
45327;BME280;31062;49.678;24.560;2023-03-18T03:01:42;98927.38;;;0.17;65.48
45327;BME280;31062;49.678;24.560;2023-03-18T03:04:28;98938.28;;;0.17;65.72
45327;BME280;31062;49.678;24.560;2023-03-18T03:07:13;98771.00;;;-0.82;65.18
45327;BME280;31062;49.678;24.560;2023-03-18T03:10:05;98915.47;;;0.20;64.78
45327;BME280;31062;49.678;24.560;2023-03-18T03:12:51;98686.78;;;-1.39;65.16
45327;BME280;31062;49.678;24.560;2023-03-18T03:15:38;98915.47;;;0.20;64.70
45327;BME280;31062;49.678;24.560;2023-03-18T03:18:25;98701.94;;;-1.27;65.32
45327;BME280;31062;49.678;24.560;2023-03-18T03:21:12;98878.69;;;-0.01;65.49
45327;BME280;31062;49.678;24.560;2023-03-18T03:24:02;98943.25;;;0.24;64.63
45327;BME280;31062;49.678;24.560;2023-03-18T03:26:48;98906.53;;;0.20;64.91
45327;BME280;31062;49.678;24.560;2023-03-18T03:29:33;98712.19;;;-1.10;65.16
45327;BME280;31062;49.678;24.560;2023-03-18T03:32:19;98908.97;;;0.12;65.29
45327;BME280;31062;49.678;24.560;2023-03-18T03:35:07;98887.66;;;0.05;64.82
45327;BME280;31062;49.678;24.560;2023-03-18T03:37:54;98905.59;;;0.28;64.84
45327;BME280;31062;49.678;24.560;2023-03-18T03:40:40;98708.97;;;-1.09;65.04
45327;BME280;31062;49.678;24.560;2023-03-18T03:43:26;98708.53;;;-1.02;65.23
45327;BME280;31062;49.678;24.560;2023-03-18T03:46:12;98720.91;;;-0.95;64.52
45327;BME280;31062;49.678;24.560;2023-03-18T03:48:57;98701.81;;;-1.06;63.99
45327;BME280;31062;49.678;24.560;2023-03-18T03:51:43;98696.38;;;-1.06;64.11
45327;BME280;31062;49.678;24.560;2023-03-18T03:54:29;98726.19;;;-0.86;64.52
45327;BME280;31062;49.678;24.560;2023-03-18T03:57:15;98921.72;;;0.32;64.47
45327;BME280;31062;49.678;24.560;2023-03-18T04:00:03;98719.25;;;-0.87;63.76
45327;BME280;31062;49.678;24.560;2023-03-18T04:02:59;98684.50;;;-1.09;63.93
45327;BME280;31062;49.678;24.560;2023-03-18T04:05:45;98845.94;;;-0.12;64.17
45327;BME280;31062;49.678;24.560;2023-03-18T04:08:34;98691.91;;;-1.09;65.17
45327;BME280;31062;49.678;24.560;2023-03-18T04:11:21;98866.34;;;0.09;64.52
45327;BME280;31062;49.678;24.560;2023-03-18T04:14:06;98895.91;;;0.22;65.05
45327;BME280;31062;49.678;24.560;2023-03-18T04:16:52;98671.97;;;-1.32;64.88
45327;BME280;31062;49.678;24.560;2023-03-18T04:19:42;98895.56;;;0.03;65.22
45327;BME280;31062;49.678;24.560;2023-03-18T04:22:28;98895.16;;;0.21;65.34
45327;BME280;31062;49.678;24.560;2023-03-18T04:25:14;98845.44;;;-0.05;64.62
45327;BME280;31062;49.678;24.560;2023-03-18T04:27:59;98823.09;;;-0.20;65.19
45327;BME280;31062;49.678;24.560;2023-03-18T04:30:46;98682.53;;;-1.08;64.93
45327;BME280;31062;49.678;24.560;2023-03-18T04:33:34;98733.59;;;-0.87;65.42
45327;BME280;31062;49.678;24.560;2023-03-18T04:36:20;98881.94;;;0.03;65.80
45327;BME280;31062;49.678;24.560;2023-03-18T04:39:07;98909.56;;;0.33;65.65
45327;BME280;31062;49.678;24.560;2023-03-18T04:41:54;98911.00;;;0.17;65.51
45327;BME280;31062;49.678;24.560;2023-03-18T04:44:42;98910.09;;;0.43;65.21
45327;BME280;31062;49.678;24.560;2023-03-18T04:47:28;98868.59;;;0.16;64.76
45327;BME280;31062;49.678;24.560;2023-03-18T04:50:14;98874.78;;;0.11;64.85
45327;BME280;31062;49.678;24.560;2023-03-18T04:53:00;98914.09;;;0.42;65.36
45327;BME280;31062;49.678;24.560;2023-03-18T04:55:49;98700.91;;;-0.92;65.01
45327;BME280;31062;49.678;24.560;2023-03-18T04:58:39;98925.59;;;0.73;65.50
45327;BME280;31062;49.678;24.560;2023-03-18T05:01:29;98752.03;;;-0.11;64.45
45327;BME280;31062;49.678;24.560;2023-03-18T05:04:15;98753.56;;;0.12;64.46
45327;BME280;31062;49.678;24.560;2023-03-18T05:07:06;98905.34;;;1.25;64.32
45327;BME280;31062;49.678;24.560;2023-03-18T05:09:55;98901.09;;;1.51;63.74
45327;BME280;31062;49.678;24.560;2023-03-18T05:12:42;98904.56;;;1.69;64.05
45327;BME280;31062;49.678;24.560;2023-03-18T05:15:29;98717.19;;;0.60;62.92
45327;BME280;31062;49.678;24.560;2023-03-18T05:18:17;98719.41;;;0.78;63.43
45327;BME280;31062;49.678;24.560;2023-03-18T05:21:07;98915.59;;;2.32;62.64
45327;BME280;31062;49.678;24.560;2023-03-18T05:23:55;98916.53;;;2.40;62.35
45327;BME280;31062;49.678;24.560;2023-03-18T05:26:41;98896.53;;;2.67;62.23
45327;BME280;31062;49.678;24.560;2023-03-18T05:29:30;98916.75;;;3.00;61.55
45327;BME280;31062;49.678;24.560;2023-03-18T05:32:45;98918.81;;;3.23;60.83
45327;BME280;31062;49.678;24.560;2023-03-18T05:35:33;98922.09;;;3.52;60.28
45327;BME280;31062;49.678;24.560;2023-03-18T05:38:19;98931.78;;;3.53;59.83
45327;BME280;31062;49.678;24.560;2023-03-18T05:41:05;98928.09;;;3.80;59.48
45327;BME280;31062;49.678;24.560;2023-03-18T05:43:55;98909.00;;;3.93;59.39
45327;BME280;31062;49.678;24.560;2023-03-18T05:46:43;98924.13;;;4.24;59.12
45327;BME280;31062;49.678;24.560;2023-03-18T05:49:34;98926.97;;;4.37;58.90
45327;BME280;31062;49.678;24.560;2023-03-18T05:52:47;98913.88;;;4.49;58.25
45327;BME280;31062;49.678;24.560;2023-03-18T05:55:39;98772.28;;;3.79;57.67
45327;BME280;31062;49.678;24.560;2023-03-18T05:58:25;98917.97;;;4.99;57.44
45327;BME280;31062;49.678;24.560;2023-03-18T06:01:28;98735.22;;;3.91;56.88
45327;BME280;31062;49.678;24.560;2023-03-18T06:04:16;98846.97;;;4.84;56.80
45327;BME280;31062;49.678;24.560;2023-03-18T06:07:03;98727.13;;;4.17;56.16
45327;BME280;31062;49.678;24.560;2023-03-18T06:09:50;98729.72;;;4.28;55.56
45327;BME280;31062;49.678;24.560;2023-03-18T06:12:38;98908.78;;;5.60;55.01
45327;BME280;31062;49.678;24.560;2023-03-18T06:15:23;98735.72;;;4.45;55.20
45327;BME280;31062;49.678;24.560;2023-03-18T06:18:10;98775.47;;;4.89;55.17
45327;BME280;31062;49.678;24.560;2023-03-18T06:20:56;98877.47;;;5.63;54.44
45327;BME280;31062;49.678;24.560;2023-03-18T06:23:41;98907.78;;;5.89;53.83
45327;BME280;31062;49.678;24.560;2023-03-18T06:26:27;98909.91;;;5.96;53.35
45327;BME280;31062;49.678;24.560;2023-03-18T06:29:13;98759.94;;;4.92;53.32
45327;BME280;31062;49.678;24.560;2023-03-18T06:32:02;98774.63;;;4.94;52.31
45327;BME280;31062;49.678;24.560;2023-03-18T06:34:48;98912.59;;;5.70;53.07
45327;BME280;31062;49.678;24.560;2023-03-18T06:37:34;98923.00;;;5.77;52.90
45327;BME280;31062;49.678;24.560;2023-03-18T06:40:20;98768.84;;;4.98;53.19
45327;BME280;31062;49.678;24.560;2023-03-18T06:43:07;98926.63;;;5.98;53.04
45327;BME280;31062;49.678;24.560;2023-03-18T06:45:55;98921.88;;;5.99;53.23
45327;BME280;31062;49.678;24.560;2023-03-18T06:48:42;98886.38;;;5.82;52.99
45327;BME280;31062;49.678;24.560;2023-03-18T06:51:32;98915.63;;;5.98;52.71
45327;BME280;31062;49.678;24.560;2023-03-18T06:54:21;98908.44;;;5.95;52.60
45327;BME280;31062;49.678;24.560;2023-03-18T06:57:07;98933.09;;;6.01;52.55
45327;BME280;31062;49.678;24.560;2023-03-18T06:59:53;98904.66;;;5.80;52.27
45327;BME280;31062;49.678;24.560;2023-03-18T07:02:40;98915.63;;;5.98;52.88
45327;BME280;31062;49.678;24.560;2023-03-18T07:05:28;98729.25;;;4.75;53.03
45327;BME280;31062;49.678;24.560;2023-03-18T07:08:15;98912.03;;;6.03;52.61
45327;BME280;31062;49.678;24.560;2023-03-18T07:11:02;98860.97;;;5.76;52.82
45327;BME280;31062;49.678;24.560;2023-03-18T07:13:49;98882.81;;;6.00;52.99
45327;BME280;31062;49.678;24.560;2023-03-18T07:16:45;98856.56;;;5.99;53.64
45327;BME280;31062;49.678;24.560;2023-03-18T07:19:32;98911.94;;;6.48;52.71
45327;BME280;31062;49.678;24.560;2023-03-18T07:22:18;98897.19;;;6.46;52.34
45327;BME280;31062;49.678;24.560;2023-03-18T07:25:07;98914.75;;;6.69;52.07
45327;BME280;31062;49.678;24.560;2023-03-18T07:27:58;98912.59;;;6.75;51.72
45327;BME280;31062;49.678;24.560;2023-03-18T07:30:44;98918.22;;;6.83;51.21
45327;BME280;31062;49.678;24.560;2023-03-18T07:33:31;98797.16;;;6.04;51.21
45327;BME280;31062;49.678;24.560;2023-03-18T07:36:18;98896.41;;;6.72;51.03
45327;BME280;31062;49.678;24.560;2023-03-18T07:39:05;98894.81;;;6.76;50.79
45327;BME280;31062;49.678;24.560;2023-03-18T07:41:53;98752.59;;;5.79;50.33
45327;BME280;31062;49.678;24.560;2023-03-18T07:44:46;98912.06;;;6.90;51.28
45327;BME280;31062;49.678;24.560;2023-03-18T07:47:31;98752.22;;;5.88;50.85
45327;BME280;31062;49.678;24.560;2023-03-18T07:50:19;98784.78;;;6.10;50.39
45327;BME280;31062;49.678;24.560;2023-03-18T07:53:06;98920.69;;;7.07;50.70
45327;BME280;31062;49.678;24.560;2023-03-18T07:55:52;98919.06;;;6.91;50.73
45327;BME280;31062;49.678;24.560;2023-03-18T07:58:38;98901.31;;;7.00;50.58
45327;BME280;31062;49.678;24.560;2023-03-18T08:01:23;98764.34;;;6.06;49.70
45327;BME280;31062;49.678;24.560;2023-03-18T08:04:09;98900.88;;;7.09;49.38
45327;BME280;31062;49.678;24.560;2023-03-18T08:06:56;98731.00;;;5.96;48.47
45327;BME280;31062;49.678;24.560;2023-03-18T08:09:44;98910.53;;;7.23;48.48
45327;BME280;31062;49.678;24.560;2023-03-18T08:12:29;98907.66;;;7.28;49.21
45327;BME280;31062;49.678;24.560;2023-03-18T08:15:36;98880.03;;;7.21;48.15
45327;BME280;31062;49.678;24.560;2023-03-18T08:18:21;98917.00;;;7.46;47.36
45327;BME280;31062;49.678;24.560;2023-03-18T08:21:08;98910.00;;;7.45;47.69
45327;BME280;31062;49.678;24.560;2023-03-18T08:23:54;98913.38;;;7.51;47.36
45327;BME280;31062;49.678;24.560;2023-03-18T08:26:41;98908.75;;;7.46;46.60
45327;BME280;31062;49.678;24.560;2023-03-18T08:29:48;98922.69;;;7.61;46.54
45327;BME280;31062;49.678;24.560;2023-03-18T08:32:54;98922.47;;;7.59;47.18
45327;BME280;31062;49.678;24.560;2023-03-18T08:35:42;98774.03;;;6.67;48.34
45327;BME280;31062;49.678;24.560;2023-03-18T08:38:27;98917.16;;;7.61;46.80
45327;BME280;31062;49.678;24.560;2023-03-18T08:42:26;98913.53;;;7.66;48.07
45327;BME280;31062;49.678;24.560;2023-03-18T08:45:12;98906.44;;;7.58;46.32
45327;BME280;31062;49.678;24.560;2023-03-18T08:47:58;98743.78;;;6.54;45.57
45327;BME280;31062;49.678;24.560;2023-03-18T08:50:45;98913.59;;;7.74;45.67
45327;BME280;31062;49.678;24.560;2023-03-18T08:53:31;98914.78;;;7.65;45.20
45327;BME280;31062;49.678;24.560;2023-03-18T08:56:17;98791.31;;;6.88;45.75
45327;BME280;31062;49.678;24.560;2023-03-18T08:59:03;98913.69;;;7.89;45.98
45327;BME280;31062;49.678;24.560;2023-03-18T09:01:48;98934.72;;;7.92;46.73
45327;BME280;31062;49.678;24.560;2023-03-18T09:04:35;98722.16;;;6.79;46.23
45327;BME280;31062;49.678;24.560;2023-03-18T09:07:21;98907.53;;;8.04;47.01
45327;BME280;31062;49.678;24.560;2023-03-18T09:10:07;98811.59;;;7.40;44.74
45327;BME280;31062;49.678;24.560;2023-03-18T09:12:54;98913.47;;;8.08;45.08
45327;BME280;31062;49.678;24.560;2023-03-18T09:15:40;98718.38;;;6.89;45.90
45327;BME280;31062;49.678;24.560;2023-03-18T09:18:26;98901.22;;;7.96;44.72
45327;BME280;31062;49.678;24.560;2023-03-18T09:21:12;98897.69;;;8.16;44.93
45327;BME280;31062;49.678;24.560;2023-03-18T09:23:58;98919.66;;;8.01;45.96
45327;BME280;31062;49.678;24.560;2023-03-18T09:26:45;98872.81;;;8.16;46.56
45327;BME280;31062;49.678;24.560;2023-03-18T09:29:32;98888.88;;;8.25;46.17
45327;BME280;31062;49.678;24.560;2023-03-18T09:32:18;98886.00;;;8.31;46.16
45327;BME280;31062;49.678;24.560;2023-03-18T09:35:04;98777.31;;;7.85;45.40
45327;BME280;31062;49.678;24.560;2023-03-18T09:37:51;98731.69;;;7.55;45.55
45327;BME280;31062;49.678;24.560;2023-03-18T09:40:47;98876.88;;;8.51;44.36
45327;BME280;31062;49.678;24.560;2023-03-18T09:52:34;98878.47;;;8.82;46.58
45327;BME280;31062;49.678;24.560;2023-03-18T09:55:26;98883.44;;;8.84;45.10
45327;BME280;31062;49.678;24.560;2023-03-18T09:58:32;98772.25;;;8.04;45.79
45327;BME280;31062;49.678;24.560;2023-03-18T10:01:22;98884.38;;;8.94;47.00
45327;BME280;31062;49.678;24.560;2023-03-18T10:04:21;98884.78;;;8.98;47.99
45327;BME280;31062;49.678;24.560;2023-03-18T10:07:18;98885.16;;;9.02;47.28
45327;BME280;31062;49.678;24.560;2023-03-18T10:15:55;98882.25;;;9.30;46.86
45327;BME280;31062;49.678;24.560;2023-03-18T10:18:41;98891.66;;;9.27;46.94
45327;BME280;31062;49.678;24.560;2023-03-18T10:21:43;98876.53;;;9.36;47.01
45327;BME280;31062;49.678;24.560;2023-03-18T10:24:43;98710.97;;;8.13;46.58
45327;BME280;31062;49.678;24.560;2023-03-18T10:30:53;98864.19;;;9.45;48.40
45327;BME280;31062;49.678;24.560;2023-03-18T10:33:46;98850.53;;;9.31;47.27
45327;BME280;31062;49.678;24.560;2023-03-18T10:36:48;98881.91;;;9.57;47.87
45327;BME280;31062;49.678;24.560;2023-03-18T10:39:36;98725.44;;;8.42;47.73
45327;BME280;31062;49.678;24.560;2023-03-18T10:42:29;98854.59;;;9.61;47.41
45327;BME280;31062;49.678;24.560;2023-03-18T10:45:24;98850.53;;;9.62;48.38
45327;BME280;31062;49.678;24.560;2023-03-18T10:48:35;98871.94;;;9.61;48.55
45327;BME280;31062;49.678;24.560;2023-03-18T10:54:29;98852.91;;;9.88;48.43
45327;BME280;31062;49.678;24.560;2023-03-18T10:57:19;98847.34;;;9.96;47.96
45327;BME280;31062;49.678;24.560;2023-03-18T11:03:03;98817.44;;;9.94;47.28
45327;BME280;31062;49.678;24.560;2023-03-18T11:05:50;98657.66;;;8.94;47.45
45327;BME280;31062;49.678;24.560;2023-03-18T11:08:39;98846.41;;;10.08;47.57
45327;BME280;31062;49.678;24.560;2023-03-18T11:11:31;98814.28;;;10.05;47.18
45327;BME280;31062;49.678;24.560;2023-03-18T11:14:19;98841.97;;;10.20;47.63
45327;BME280;31062;49.678;24.560;2023-03-18T11:17:26;98816.06;;;10.26;47.98
45327;BME280;31062;49.678;24.560;2023-03-18T11:23:04;98627.22;;;9.09;47.55
45327;BME280;31062;49.678;24.560;2023-03-18T11:26:01;98804.19;;;10.40;48.39
45327;BME280;31062;49.678;24.560;2023-03-18T11:28:47;98660.16;;;9.45;47.18
45327;BME280;31062;49.678;24.560;2023-03-18T11:31:46;98806.94;;;10.48;47.98
45327;BME280;31062;49.678;24.560;2023-03-18T11:34:33;98644.66;;;9.42;47.38
45327;BME280;31062;49.678;24.560;2023-03-18T11:37:19;98813.38;;;10.50;47.35
45327;BME280;31062;49.678;24.560;2023-03-18T11:40:17;98821.84;;;10.60;48.61
45327;BME280;31062;49.678;24.560;2023-03-18T11:43:16;98778.28;;;10.53;47.63
45327;BME280;31062;49.678;24.560;2023-03-18T11:46:04;98806.72;;;10.53;47.68
45327;BME280;31062;49.678;24.560;2023-03-18T11:48:51;98628.56;;;9.56;47.67
45327;BME280;31062;49.678;24.560;2023-03-18T11:51:43;98804.94;;;10.73;47.53
45327;BME280;31062;49.678;24.560;2023-03-18T12:00:19;98611.31;;;9.72;48.66
45327;BME280;31062;49.678;24.560;2023-03-18T12:06:29;98782.06;;;10.97;47.86
45327;BME280;31062;49.678;24.560;2023-03-18T12:09:42;98759.97;;;10.82;48.00
45327;BME280;31062;49.678;24.560;2023-03-18T12:13:02;98808.69;;;11.00;47.73
45327;BME280;31062;49.678;24.560;2023-03-18T12:22:33;98788.25;;;11.13;48.95
45327;BME280;31062;49.678;24.560;2023-03-18T12:35:38;98584.22;;;9.96;50.24
45327;BME280;31062;49.678;24.560;2023-03-18T12:42:09;98756.69;;;11.26;50.33
45327;BME280;31062;49.678;24.560;2023-03-18T12:45:00;98758.50;;;11.31;49.33
45327;BME280;31062;49.678;24.560;2023-03-18T12:47:58;98736.91;;;11.22;49.61
45327;BME280;31062;49.678;24.560;2023-03-18T12:51:01;98584.47;;;10.22;49.17
45327;BME280;31062;49.678;24.560;2023-03-18T12:53:53;98742.16;;;11.35;49.00
45327;BME280;31062;49.678;24.560;2023-03-18T12:56:43;98767.22;;;11.44;48.28
45327;BME280;31062;49.678;24.560;2023-03-18T12:59:39;98725.19;;;11.31;48.48
45327;BME280;31062;49.678;24.560;2023-03-18T13:05:55;98760.56;;;11.48;48.51
45327;BME280;31062;49.678;24.560;2023-03-18T13:12:00;98743.97;;;11.57;49.01
45327;BME280;31062;49.678;24.560;2023-03-18T13:17:43;98735.50;;;11.55;49.04
45327;BME280;31062;49.678;24.560;2023-03-18T13:20:36;98742.34;;;11.54;49.36
45327;BME280;31062;49.678;24.560;2023-03-18T13:29:32;98742.69;;;11.58;49.28
45327;BME280;31062;49.678;24.560;2023-03-18T13:35:17;98707.94;;;11.32;49.93
45327;BME280;31062;49.678;24.560;2023-03-18T13:44:43;98727.97;;;11.48;51.17
45327;BME280;31062;49.678;24.560;2023-03-18T13:47:33;98722.75;;;11.52;51.11
45327;BME280;31062;49.678;24.560;2023-03-18T13:50:39;98709.84;;;11.47;52.65
45327;BME280;31062;49.678;24.560;2023-03-18T13:53:29;98589.97;;;10.72;52.76
45327;BME280;31062;49.678;24.560;2023-03-18T13:56:45;98702.44;;;11.50;51.93
45327;BME280;31062;49.678;24.560;2023-03-18T14:02:42;98567.66;;;10.45;51.98
45327;BME280;31062;49.678;24.560;2023-03-18T14:05:35;98686.31;;;11.31;52.65
45327;BME280;31062;49.678;24.560;2023-03-18T14:08:44;98695.78;;;11.45;53.26
45327;BME280;31062;49.678;24.560;2023-03-18T14:11:45;98648.75;;;11.13;52.95
45327;BME280;31062;49.678;24.560;2023-03-18T14:14:39;98697.09;;;11.44;53.80
45327;BME280;31062;49.678;24.560;2023-03-18T14:18:02;98684.44;;;11.33;54.15
45327;BME280;31062;49.678;24.560;2023-03-18T14:20:51;98661.47;;;11.16;53.89
45327;BME280;31062;49.678;24.560;2023-03-18T14:23:43;98692.53;;;11.39;54.17
45327;BME280;31062;49.678;24.560;2023-03-18T14:26:29;98700.78;;;11.29;53.39
45327;BME280;31062;49.678;24.560;2023-03-18T14:29:24;98526.09;;;10.20;53.76
45327;BME280;31062;49.678;24.560;2023-03-18T14:38:39;98681.75;;;11.26;53.91
45327;BME280;31062;49.678;24.560;2023-03-18T14:41:28;98523.66;;;10.00;53.76
45327;BME280;31062;49.678;24.560;2023-03-18T14:47:40;98689.59;;;11.20;54.07
45327;BME280;31062;49.678;24.560;2023-03-18T14:50:36;98672.75;;;11.18;54.12
45327;BME280;31062;49.678;24.560;2023-03-18T14:53:33;98678.72;;;11.14;54.11
45327;BME280;31062;49.678;24.560;2023-03-18T14:56:22;98516.66;;;9.99;53.78
45327;BME280;31062;49.678;24.560;2023-03-18T14:59:18;98666.94;;;11.06;54.47
45327;BME280;31062;49.678;24.560;2023-03-18T15:02:42;98674.03;;;10.99;54.86
45327;BME280;31062;49.678;24.560;2023-03-18T15:05:34;98665.53;;;10.97;54.92
45327;BME280;31062;49.678;24.560;2023-03-18T15:08:24;98671.69;;;10.96;55.33
45327;BME280;31062;49.678;24.560;2023-03-18T15:11:36;98666.47;;;10.75;55.25
45327;BME280;31062;49.678;24.560;2023-03-18T15:14:29;98673.34;;;10.91;55.35
45327;BME280;31062;49.678;24.560;2023-03-18T15:17:16;98680.34;;;10.75;55.40
45327;BME280;31062;49.678;24.560;2023-03-18T15:20:02;98601.59;;;10.29;55.62
45327;BME280;31062;49.678;24.560;2023-03-18T15:22:51;98500.81;;;9.67;55.90
45327;BME280;31062;49.678;24.560;2023-03-18T15:25:38;98665.34;;;10.78;56.27
45327;BME280;31062;49.678;24.560;2023-03-18T15:28:27;98385.28;;;8.78;56.17
45327;BME280;31062;49.678;24.560;2023-03-18T15:31:29;98669.44;;;10.77;56.75
45327;BME280;31062;49.678;24.560;2023-03-18T15:34:23;98683.53;;;10.72;55.98
45327;BME280;31062;49.678;24.560;2023-03-18T15:43:18;98675.84;;;10.55;55.85
45327;BME280;31062;49.678;24.560;2023-03-18T15:49:09;98667.47;;;10.38;56.33
45327;BME280;31062;49.678;24.560;2023-03-18T15:52:00;98553.13;;;9.48;56.40
45327;BME280;31062;49.678;24.560;2023-03-18T15:54:49;98542.09;;;9.40;56.24
45327;BME280;31062;49.678;24.560;2023-03-18T15:57:42;98668.88;;;10.21;56.57
45327;BME280;31062;49.678;24.560;2023-03-18T16:00:31;98650.13;;;10.05;56.90
45327;BME280;31062;49.678;24.560;2023-03-18T16:03:22;98503.94;;;8.91;57.10
45327;BME280;31062;49.678;24.560;2023-03-18T16:06:14;98706.78;;;10.11;57.22
45327;BME280;31062;49.678;24.560;2023-03-18T16:09:30;98692.34;;;10.20;57.26
45327;BME280;31062;49.678;24.560;2023-03-18T16:12:23;98692.00;;;10.16;57.43
45327;BME280;31062;49.678;24.560;2023-03-18T16:15:18;98691.63;;;10.12;57.48
45327;BME280;31062;49.678;24.560;2023-03-18T16:18:16;98687.44;;;9.96;57.67
45327;BME280;31062;49.678;24.560;2023-03-18T16:21:05;98689.09;;;9.99;57.80
45327;BME280;31062;49.678;24.560;2023-03-18T16:23:55;98694.66;;;9.99;57.93
45327;BME280;31062;49.678;24.560;2023-03-18T16:26:43;98698.72;;;9.98;58.33
45327;BME280;31062;49.678;24.560;2023-03-18T16:29:34;98690.97;;;9.89;58.98
45327;BME280;31062;49.678;24.560;2023-03-18T16:32:26;98685.94;;;9.63;58.48
45327;BME280;31062;49.678;24.560;2023-03-18T16:35:18;98733.47;;;9.84;58.54
45327;BME280;31062;49.678;24.560;2023-03-18T16:38:16;98702.66;;;9.80;58.99
45327;BME280;31062;49.678;24.560;2023-03-18T16:41:05;98714.16;;;9.61;59.11
45327;BME280;31062;49.678;24.560;2023-03-18T16:43:57;98665.28;;;9.49;59.18
45327;BME280;31062;49.678;24.560;2023-03-18T16:46:48;98533.53;;;8.35;59.33